createdAt,value
2018-07-09T00:00:50.771Z,1015.24
2018-07-09T00:01:50.758Z,1015.25
2018-07-09T00:02:50.746Z,1015.28
2018-07-09T00:03:50.734Z,1015.24
2018-07-09T00:04:50.724Z,1015.27
2018-07-09T00:05:50.711Z,1015.32
2018-07-09T00:06:50.711Z,1015.28
2018-07-09T00:07:50.689Z,1015.29
2018-07-09T00:08:50.676Z,1015.29
2018-07-09T00:09:50.669Z,1015.30
2018-07-09T00:10:50.656Z,1015.34
2018-07-09T00:11:50.641Z,1015.32
2018-07-09T00:12:50.630Z,1015.38
2018-07-09T00:13:50.620Z,1015.33
2018-07-09T00:14:50.610Z,1015.38
2018-07-09T00:15:50.595Z,1015.40
2018-07-09T00:16:50.586Z,1015.42
2018-07-09T00:17:50.571Z,1015.41
2018-07-09T00:18:50.564Z,1015.38
2018-07-09T00:19:50.552Z,1015.39
2018-07-09T00:20:50.541Z,1015.41
2018-07-09T00:21:50.523Z,1015.41
2018-07-09T00:22:50.512Z,1015.41
2018-07-09T00:23:50.521Z,1015.43
2018-07-09T00:24:50.489Z,1015.41
2018-07-09T00:25:50.480Z,1015.43
2018-07-09T00:26:50.466Z,1015.42
2018-07-09T00:27:50.452Z,1015.39
2018-07-09T00:28:50.444Z,1015.44
2018-07-09T00:29:50.428Z,1015.37
2018-07-09T00:30:50.419Z,1015.38
2018-07-09T00:31:50.406Z,1015.36
2018-07-09T00:32:50.394Z,1015.35
2018-07-09T00:33:50.382Z,1015.38
2018-07-09T00:34:50.373Z,1015.39
2018-07-09T00:35:50.360Z,1015.37
2018-07-09T00:36:50.348Z,1015.37
2018-07-09T00:37:50.341Z,1015.39
2018-07-09T00:38:50.328Z,1015.39
2018-07-09T00:39:50.311Z,1015.36
2018-07-09T00:40:50.310Z,1015.42
2018-07-09T00:41:50.287Z,1015.40
2018-07-09T00:42:50.275Z,1015.39
2018-07-09T00:43:50.263Z,1015.40
2018-07-09T00:44:50.252Z,1015.37
2018-07-09T00:45:50.239Z,1015.35
2018-07-09T00:46:50.233Z,1015.38
2018-07-09T00:47:50.215Z,1015.34
2018-07-09T00:48:50.207Z,1015.37
2018-07-09T00:49:50.195Z,1015.34
2018-07-09T00:50:50.382Z,1015.34
2018-07-09T00:55:13.526Z,1015.31
2018-07-09T00:56:13.511Z,1015.31
2018-07-09T00:57:13.500Z,1015.33
2018-07-09T00:58:13.488Z,1015.32
2018-07-09T00:59:13.476Z,1015.35
2018-07-09T01:00:13.469Z,1015.33
2018-07-09T01:01:13.452Z,1015.31
2018-07-09T01:02:13.441Z,1015.32
2018-07-09T01:04:00.966Z,1015.36
2018-07-09T01:05:00.956Z,1015.33
2018-07-09T01:06:00.947Z,1015.30
2018-07-09T01:07:00.931Z,1015.33
2018-07-09T01:08:00.927Z,1015.31
2018-07-09T01:09:00.907Z,1015.31
2018-07-09T01:10:00.892Z,1015.27
2018-07-09T01:11:00.893Z,1015.27
2018-07-09T01:12:00.875Z,1015.25
2018-07-09T01:13:00.859Z,1015.27
2018-07-09T01:14:00.844Z,1015.27
2018-07-09T01:15:00.833Z,1015.26
2018-07-09T01:16:00.821Z,1015.27
2018-07-09T01:17:00.815Z,1015.28
2018-07-09T01:18:00.796Z,1015.25
2018-07-09T01:19:00.784Z,1015.23
2018-07-09T01:20:00.771Z,1015.24
2018-07-09T01:21:00.760Z,1015.25
2018-07-09T01:22:00.747Z,1015.23
2018-07-09T01:23:00.736Z,1015.25
2018-07-09T01:24:00.722Z,1015.21
2018-07-09T01:25:00.711Z,1015.24
2018-07-09T01:26:00.698Z,1015.28
2018-07-09T01:27:00.689Z,1015.23
2018-07-09T01:28:00.674Z,1015.23
2018-07-09T01:29:00.659Z,1015.27
2018-07-09T01:30:00.649Z,1015.27
2018-07-09T01:31:00.635Z,1015.29
2018-07-09T01:32:00.635Z,1015.28
2018-07-09T01:33:00.612Z,1015.23
2018-07-09T01:34:00.598Z,1015.25
2018-07-09T01:35:00.586Z,1015.21
2018-07-09T01:36:00.575Z,1015.21
2018-07-09T01:37:00.562Z,1015.19
2018-07-09T01:38:00.548Z,1015.22
2018-07-09T01:39:00.536Z,1015.18
2018-07-09T01:40:00.524Z,1015.16
2018-07-09T01:41:00.510Z,1015.16
2018-07-09T01:42:00.500Z,1015.14
2018-07-09T01:43:00.487Z,1015.15
2018-07-09T01:44:00.474Z,1015.16
2018-07-09T01:45:00.460Z,1015.13
2018-07-09T01:46:00.452Z,1015.13
2018-07-09T01:47:00.436Z,1015.12
2018-07-09T01:48:00.423Z,1015.13
2018-07-09T01:49:00.416Z,1015.11
2018-07-09T01:50:00.397Z,1015.12
2018-07-09T01:51:00.389Z,1015.11
2018-07-09T01:52:00.372Z,1015.05
2018-07-09T01:53:00.364Z,1015.07
2018-07-09T01:54:00.347Z,1015.03
2018-07-09T01:55:00.333Z,1015.07
2018-07-09T01:56:00.320Z,1015.04
2018-07-09T01:57:00.309Z,1015.01
2018-07-09T01:58:00.295Z,1015.03
2018-07-09T01:59:00.282Z,1015.04
2018-07-09T02:00:00.270Z,1015.03
2018-07-09T02:01:00.261Z,1015.04
2018-07-09T02:02:00.244Z,1015.08
2018-07-09T02:03:00.232Z,1015.08
2018-07-09T02:04:00.221Z,1015.06
2018-07-09T02:05:00.207Z,1015.05
2018-07-09T02:06:00.195Z,1015.07
2018-07-09T02:07:00.182Z,1015.03
2018-07-09T02:08:00.167Z,1015.02
2018-07-09T02:09:00.154Z,1015.00
2018-07-09T02:10:00.146Z,1015.00
2018-07-09T02:11:00.129Z,1015.06
2018-07-09T02:12:00.116Z,1015.06
2018-07-09T02:13:00.109Z,1015.09
2018-07-09T02:14:00.094Z,1015.10
2018-07-09T02:15:00.084Z,1015.08
2018-07-09T02:16:00.064Z,1015.10
2018-07-09T02:17:00.052Z,1015.09
2018-07-09T02:18:00.040Z,1015.05
2018-07-09T02:19:00.028Z,1015.07
2018-07-09T02:20:00.036Z,1015.04
2018-07-09T02:20:59.998Z,1015.09
2018-07-09T02:21:59.987Z,1015.13
2018-07-09T02:22:59.974Z,1015.09
2018-07-09T02:23:59.961Z,1015.09
2018-07-09T02:24:59.948Z,1015.08
2018-07-09T02:25:59.934Z,1015.09
2018-07-09T02:26:59.921Z,1015.06
2018-07-09T02:27:59.910Z,1015.05
2018-07-09T02:28:59.898Z,1015.07
2018-07-09T02:29:59.883Z,1015.05
2018-07-09T02:30:59.870Z,1015.06
2018-07-09T02:31:59.857Z,1015.03
2018-07-09T02:32:59.844Z,1015.05
2018-07-09T02:33:59.829Z,1015.05
2018-07-09T02:34:59.817Z,1015.05
2018-07-09T02:35:59.804Z,1015.07
2018-07-09T02:36:59.791Z,1015.08
2018-07-09T02:37:59.777Z,1015.06
2018-07-09T02:38:59.765Z,1015.07
2018-07-09T02:39:59.756Z,1015.06
2018-07-09T02:40:59.760Z,1015.05
2018-07-09T02:41:59.725Z,1015.01
2018-07-09T02:42:59.713Z,1015.01
2018-07-09T02:43:59.699Z,1015.00
2018-07-09T02:44:59.684Z,1015.01
2018-07-09T02:45:59.673Z,1014.99
2018-07-09T02:46:59.661Z,1015.01
2018-07-09T02:47:59.648Z,1015.02
2018-07-09T02:48:59.649Z,1014.95
2018-07-09T02:49:59.619Z,1014.94
2018-07-09T02:50:59.607Z,1014.98
2018-07-09T02:51:59.594Z,1014.96
2018-07-09T02:52:59.586Z,1014.98
2018-07-09T02:53:59.567Z,1014.99
2018-07-09T02:54:59.556Z,1014.96
2018-07-09T02:55:59.549Z,1014.97
2018-07-09T02:56:59.527Z,1014.99
2018-07-09T02:57:59.514Z,1014.96
2018-07-09T02:58:59.502Z,1015.00
2018-07-09T02:59:59.490Z,1015.02
2018-07-09T03:00:59.601Z,1015.00
2018-07-09T03:01:59.459Z,1015.05
2018-07-09T03:02:59.448Z,1015.03
2018-07-09T03:03:59.435Z,1015.04
2018-07-09T03:04:59.425Z,1015.06
2018-07-09T03:05:59.408Z,1015.05
2018-07-09T03:06:59.395Z,1015.02
2018-07-09T03:07:59.384Z,1015.03
2018-07-09T03:08:59.370Z,1015.06
2018-07-09T03:09:59.353Z,1015.04
2018-07-09T03:10:59.342Z,1015.05
2018-07-09T03:11:59.329Z,1015.05
2018-07-09T03:12:59.313Z,1015.03
2018-07-09T03:13:59.301Z,1015.07
2018-07-09T03:14:59.288Z,1015.07
2018-07-09T03:15:59.276Z,1015.03
2018-07-09T03:16:59.266Z,1015.11
2018-07-09T03:17:59.249Z,1015.09
2018-07-09T03:18:59.285Z,1015.12
2018-07-09T03:19:59.218Z,1015.13
2018-07-09T03:20:59.210Z,1015.15
2018-07-09T03:21:59.199Z,1015.14
2018-07-09T03:22:59.191Z,1015.10
2018-07-09T03:23:59.168Z,1015.11
2018-07-09T03:24:59.151Z,1015.11
2018-07-09T03:25:59.200Z,1015.12
2018-07-09T03:26:59.124Z,1015.09
2018-07-09T03:27:59.114Z,1015.07
2018-07-09T03:28:59.102Z,1015.11
2018-07-09T03:29:59.085Z,1015.08
2018-07-09T03:30:59.086Z,1015.10
2018-07-09T03:31:59.073Z,1015.13
2018-07-09T03:32:59.050Z,1015.12
2018-07-09T03:33:59.031Z,1015.10
2018-07-09T03:34:59.018Z,1015.10
2018-07-09T03:35:59.004Z,1015.12
2018-07-09T03:36:58.992Z,1015.11
2018-07-09T03:37:58.982Z,1015.09
2018-07-09T03:38:58.963Z,1015.08
2018-07-09T03:39:58.950Z,1015.07
2018-07-09T03:40:58.944Z,1015.08
2018-07-09T03:41:58.923Z,1015.02
2018-07-09T03:42:58.909Z,1015.06
2018-07-09T03:43:58.901Z,1015.06
2018-07-09T03:44:58.883Z,1015.06
2018-07-09T03:45:58.867Z,1015.09
2018-07-09T03:46:58.854Z,1015.09
2018-07-09T03:47:58.843Z,1015.07
2018-07-09T03:48:58.832Z,1015.08
2018-07-09T03:49:58.818Z,1015.06
2018-07-09T03:50:58.846Z,1015.04
2018-07-09T03:51:58.784Z,1015.06
2018-07-09T03:52:58.777Z,1015.05
2018-07-09T03:53:58.760Z,1015.07
2018-07-09T03:54:58.746Z,1015.09
2018-07-09T03:55:58.740Z,1015.09
2018-07-09T03:56:58.720Z,1015.06
2018-07-09T03:57:58.705Z,1015.11
2018-07-09T03:58:58.691Z,1015.09
2018-07-09T03:59:58.677Z,1015.06
2018-07-09T04:00:58.668Z,1015.04
2018-07-09T04:01:58.651Z,1015.04
2018-07-09T04:02:58.638Z,1015.05
2018-07-09T04:03:58.622Z,1015.01
2018-07-09T04:04:58.609Z,1014.99
2018-07-09T04:05:58.597Z,1015.02
2018-07-09T04:06:58.583Z,1015.03
2018-07-09T04:07:58.573Z,1015.05
2018-07-09T04:08:58.560Z,1015.02
2018-07-09T04:09:58.543Z,1015.04
2018-07-09T04:10:58.527Z,1015.00
2018-07-09T04:12:17.744Z,1015.04
2018-07-09T04:13:17.730Z,1015.03
2018-07-09T04:14:17.709Z,1015.06
2018-07-09T04:15:17.699Z,1015.04
2018-07-09T04:16:17.685Z,1015.07
2018-07-09T04:17:17.669Z,1015.00
2018-07-09T04:18:17.655Z,1015.01
2018-07-09T04:19:17.645Z,1014.99
2018-07-09T04:20:17.631Z,1014.98
2018-07-09T04:21:17.616Z,1014.97
2018-07-09T04:22:17.602Z,1014.97
2018-07-09T04:23:17.589Z,1014.93
2018-07-09T04:24:17.576Z,1014.96
2018-07-09T04:25:17.560Z,1014.99
2018-07-09T04:26:17.575Z,1014.96
2018-07-09T04:27:17.536Z,1014.98
2018-07-09T04:28:17.519Z,1014.96
2018-07-09T04:29:17.506Z,1014.98
2018-07-09T04:30:17.492Z,1015.02
2018-07-09T04:31:17.480Z,1014.99
2018-07-09T04:32:17.466Z,1015.00
2018-07-09T04:33:17.455Z,1015.01
2018-07-09T04:34:17.438Z,1014.99
2018-07-09T04:35:17.432Z,1015.00
2018-07-09T04:36:17.413Z,1014.99
2018-07-09T04:37:17.397Z,1015.01
2018-07-09T04:38:17.385Z,1014.99
2018-07-09T04:39:17.370Z,1014.97
2018-07-09T04:40:17.356Z,1014.99
2018-07-09T04:41:17.345Z,1015.00
2018-07-09T04:42:17.331Z,1015.00
2018-07-09T04:43:17.326Z,1014.99
2018-07-09T04:44:17.301Z,1015.03
2018-07-09T04:45:17.291Z,1015.05
2018-07-09T04:46:17.276Z,1015.06
2018-07-09T04:47:17.278Z,1015.08
2018-07-09T04:48:17.252Z,1015.08
2018-07-09T04:49:17.235Z,1015.06
2018-07-09T04:50:17.222Z,1015.05
2018-07-09T04:51:17.207Z,1015.03
2018-07-09T04:52:17.198Z,1015.07
2018-07-09T04:53:17.181Z,1015.07
2018-07-09T04:54:17.168Z,1015.05
2018-07-09T04:55:17.156Z,1015.07
2018-07-09T04:56:17.145Z,1015.02
2018-07-09T04:57:17.136Z,1015.03
2018-07-09T04:58:17.112Z,1015.04
2018-07-09T04:59:17.099Z,1015.05
2018-07-09T05:00:17.088Z,1015.04
2018-07-09T05:01:17.072Z,1015.00
2018-07-09T05:02:17.060Z,1015.00
2018-07-09T05:03:17.043Z,1015.00
2018-07-09T05:04:17.032Z,1015.00
2018-07-09T05:05:17.024Z,1015.04
2018-07-09T05:06:17.012Z,1015.04
2018-07-09T05:07:16.995Z,1015.01
2018-07-09T05:08:16.979Z,1015.04
2018-07-09T05:09:16.966Z,1015.04
2018-07-09T05:10:16.954Z,1015.06
2018-07-09T05:11:16.941Z,1015.00
2018-07-09T05:12:16.925Z,1015.02
2018-07-09T05:13:16.909Z,1015.06
2018-07-09T05:14:16.898Z,1015.00
2018-07-09T05:15:16.883Z,1014.98
2018-07-09T05:16:16.870Z,1014.98
2018-07-09T05:17:16.856Z,1014.97
2018-07-09T05:18:16.841Z,1014.96
2018-07-09T05:19:16.829Z,1014.98
2018-07-09T05:20:16.816Z,1014.99
2018-07-09T05:21:16.803Z,1014.95
2018-07-09T05:22:16.788Z,1014.93
2018-07-09T05:23:16.776Z,1014.96
2018-07-09T05:24:16.766Z,1014.97
2018-07-09T05:25:16.753Z,1014.92
2018-07-09T05:26:16.737Z,1014.92
2018-07-09T05:27:16.720Z,1014.95
2018-07-09T05:28:16.708Z,1014.94
2018-07-09T05:29:16.694Z,1014.95
2018-07-09T05:30:16.681Z,1015.00
2018-07-09T05:31:16.668Z,1015.00
2018-07-09T05:32:16.654Z,1014.96
2018-07-09T05:33:16.657Z,1014.97
2018-07-09T05:34:16.629Z,1014.98
2018-07-09T05:35:16.614Z,1014.99
2018-07-09T05:36:16.601Z,1015.02
2018-07-09T05:37:16.592Z,1015.02
2018-07-09T05:38:16.583Z,1015.01
2018-07-09T05:39:16.562Z,1015.01
2018-07-09T05:40:16.554Z,1014.95
2018-07-09T05:41:16.534Z,1015.01
2018-07-09T05:42:16.521Z,1014.98
2018-07-09T05:43:16.508Z,1015.00
2018-07-09T05:44:16.498Z,1014.95
2018-07-09T05:45:16.482Z,1014.97
2018-07-09T05:46:16.466Z,1014.93
2018-07-09T05:47:16.458Z,1014.98
2018-07-09T05:48:16.440Z,1014.97
2018-07-09T05:49:16.430Z,1014.95
2018-07-09T05:50:16.416Z,1014.97
2018-07-09T05:51:16.405Z,1014.97
2018-07-09T05:52:16.392Z,1014.96
2018-07-09T05:53:16.417Z,1014.95
2018-07-09T05:54:16.364Z,1014.98
2018-07-09T05:55:16.351Z,1014.96
2018-07-09T05:56:16.335Z,1014.97
2018-07-09T05:57:16.326Z,1014.99
2018-07-09T05:58:16.310Z,1014.97
2018-07-09T05:59:16.296Z,1014.98
2018-07-09T06:00:16.285Z,1014.98
2018-07-09T06:01:16.269Z,1015.01
2018-07-09T06:02:16.258Z,1014.97
2018-07-09T06:03:16.246Z,1014.98
2018-07-09T06:04:16.231Z,1015.00
2018-07-09T06:05:16.218Z,1014.96
2018-07-09T06:06:16.204Z,1014.97
2018-07-09T06:07:16.191Z,1014.98
2018-07-09T06:08:16.181Z,1014.96
2018-07-09T06:09:16.166Z,1014.97
2018-07-09T06:10:16.152Z,1014.97
2018-07-09T06:11:16.238Z,1014.97
2018-07-09T06:12:16.129Z,1014.97
2018-07-09T06:13:16.124Z,1014.94
2018-07-09T06:14:16.102Z,1014.95
2018-07-09T06:15:16.089Z,1014.94
2018-07-09T06:16:16.076Z,1014.96
2018-07-09T06:17:16.063Z,1014.94
2018-07-09T06:18:16.055Z,1015.01
2018-07-09T06:19:16.062Z,1015.00
2018-07-09T06:20:16.027Z,1015.00
2018-07-09T06:21:16.010Z,1014.97
2018-07-09T06:22:16.000Z,1014.93
2018-07-09T06:23:15.984Z,1014.95
2018-07-09T06:24:15.972Z,1014.94
2018-07-09T06:25:15.959Z,1014.84
2018-07-09T06:26:15.944Z,1014.84
2018-07-09T06:27:15.934Z,1014.82
2018-07-09T06:28:15.922Z,1014.81
2018-07-09T06:29:15.907Z,1014.79
2018-07-09T06:30:15.896Z,1014.79
2018-07-09T06:31:15.886Z,1014.79
2018-07-09T06:32:15.869Z,1014.78
2018-07-09T06:33:15.861Z,1014.81
2018-07-09T06:34:15.844Z,1014.84
2018-07-09T06:35:15.831Z,1014.84
2018-07-09T06:36:15.817Z,1014.85
2018-07-09T06:37:15.806Z,1014.87
2018-07-09T06:38:15.800Z,1014.87
2018-07-09T06:39:15.782Z,1014.85
2018-07-09T06:40:15.768Z,1014.88
2018-07-09T06:41:15.755Z,1014.90
2018-07-09T06:42:15.742Z,1014.91
2018-07-09T06:43:15.730Z,1014.90
2018-07-09T06:44:15.717Z,1014.87
2018-07-09T06:45:15.704Z,1014.88
2018-07-09T06:46:15.691Z,1014.86
2018-07-09T06:47:15.677Z,1014.87
2018-07-09T06:48:15.680Z,1014.84
2018-07-09T06:49:15.658Z,1014.85
2018-07-09T06:50:15.639Z,1014.83
2018-07-09T06:51:15.625Z,1014.81
2018-07-09T06:52:15.618Z,1014.83
2018-07-09T06:53:15.603Z,1014.83
2018-07-09T06:54:15.588Z,1014.84
2018-07-09T06:55:15.576Z,1014.82
2018-07-09T06:56:15.604Z,1014.87
2018-07-09T06:57:15.562Z,1014.90
2018-07-09T06:58:15.538Z,1014.94
2018-07-09T06:59:15.525Z,1014.94
2018-07-09T07:00:15.517Z,1014.95
2018-07-09T07:01:15.500Z,1014.93
2018-07-09T07:02:15.531Z,1014.90
2018-07-09T07:03:15.477Z,1014.89
2018-07-09T07:04:15.464Z,1014.90
2018-07-09T07:05:15.452Z,1014.90
2018-07-09T07:06:15.446Z,1014.94
2018-07-09T07:07:15.425Z,1014.94
2018-07-09T07:08:15.419Z,1014.93
2018-07-09T07:09:15.491Z,1014.93
2018-07-09T07:10:15.440Z,1014.90
2018-07-09T07:11:15.376Z,1014.95
2018-07-09T07:12:15.380Z,1014.90
2018-07-09T07:13:15.352Z,1014.90
2018-07-09T07:14:15.355Z,1014.90
2018-07-09T07:15:15.330Z,1014.98
2018-07-09T07:16:15.317Z,1014.96
2018-07-09T07:17:15.307Z,1014.94
2018-07-09T07:18:15.293Z,1014.95
2018-07-09T07:19:15.284Z,1014.99
2018-07-09T07:20:15.270Z,1014.97
2018-07-09T07:21:15.257Z,1014.97
2018-07-09T07:22:15.245Z,1014.94
2018-07-09T07:23:15.231Z,1014.99
2018-07-09T07:24:15.220Z,1014.94
2018-07-09T07:25:15.210Z,1014.97
2018-07-09T07:26:15.194Z,1014.99
2018-07-09T07:27:15.184Z,1014.96
2018-07-09T07:28:15.180Z,1015.00
2018-07-09T07:29:15.161Z,1014.95
2018-07-09T07:30:15.147Z,1014.95
2018-07-09T07:31:15.137Z,1015.01
2018-07-09T07:32:15.127Z,1015.03
2018-07-09T07:33:15.193Z,1015.05
2018-07-09T07:34:15.109Z,1015.07
2018-07-09T07:35:15.089Z,1015.10
2018-07-09T07:36:15.078Z,1015.05
2018-07-09T07:37:15.067Z,1015.03
2018-07-09T07:38:15.054Z,1015.04
2018-07-09T07:39:15.105Z,1015.01
2018-07-09T07:40:15.032Z,1015.07
2018-07-09T07:41:15.021Z,1015.04
2018-07-09T07:42:15.007Z,1015.05
2018-07-09T07:43:14.996Z,1015.07
2018-07-09T07:44:14.985Z,1015.09
2018-07-09T07:45:14.974Z,1015.07
2018-07-09T07:46:14.961Z,1015.10
2018-07-09T07:47:14.951Z,1015.20
2018-07-09T07:48:14.939Z,1015.18
2018-07-09T07:49:14.931Z,1015.15
2018-07-09T07:50:14.979Z,1015.19
2018-07-09T07:51:14.905Z,1015.13
2018-07-09T07:52:14.909Z,1015.13
2018-07-09T07:53:14.885Z,1015.16
2018-07-09T07:54:14.871Z,1015.17
2018-07-09T07:55:14.861Z,1015.16
2018-07-09T07:56:14.850Z,1015.08
2018-07-09T07:57:14.841Z,1015.14
2018-07-09T07:58:14.826Z,1015.11
2018-07-09T07:59:14.816Z,1015.12
2018-07-09T08:00:14.805Z,1015.13
2018-07-09T08:01:14.795Z,1015.14
2018-07-09T08:02:14.785Z,1015.10
2018-07-09T08:03:14.773Z,1015.12
2018-07-09T08:04:14.764Z,1015.19
2018-07-09T08:05:14.756Z,1015.11
2018-07-09T08:06:14.740Z,1015.10
2018-07-09T08:07:14.728Z,1015.15
2018-07-09T08:08:14.736Z,1015.12
2018-07-09T08:09:14.780Z,1015.24
2018-07-09T08:10:14.702Z,1015.99
2018-07-09T08:11:14.689Z,1016.65
2018-07-09T08:13:00.542Z,1016.92
2018-07-09T08:13:27.979Z,1017.11
2018-07-09T08:14:14.657Z,1017.15
2018-07-09T08:15:14.649Z,1016.95
2018-07-09T08:16:14.641Z,1016.85
2018-07-09T08:17:14.638Z,1016.58
2018-07-09T08:18:14.622Z,1016.22
2018-07-09T08:19:14.612Z,1015.97
2018-07-09T08:20:14.609Z,1015.98
2018-07-09T08:21:14.596Z,1016.05
2018-07-09T08:22:14.591Z,1015.99
2018-07-09T08:23:14.583Z,1016.14
2018-07-09T08:24:14.573Z,1016.18
2018-07-09T08:25:14.637Z,1016.02
2018-07-09T08:26:14.558Z,1015.91
2018-07-09T08:27:14.552Z,1015.69
2018-07-09T08:28:14.548Z,1015.56
2018-07-09T08:29:14.542Z,1015.52
2018-07-09T08:30:14.533Z,1015.50
2018-07-09T08:31:14.570Z,1015.35
2018-07-09T08:32:14.521Z,1015.27
2018-07-09T08:33:14.523Z,1015.22
2018-07-09T08:34:14.521Z,1015.20
2018-07-09T08:35:14.505Z,1015.23
2018-07-09T08:36:14.500Z,1015.29
2018-07-09T08:37:14.498Z,1015.39
2018-07-09T08:38:14.493Z,1015.34
2018-07-09T08:39:14.487Z,1015.34
2018-07-09T08:40:14.479Z,1015.37
2018-07-09T08:41:14.479Z,1015.35
2018-07-09T08:42:14.470Z,1015.35
2018-07-09T08:43:14.463Z,1015.42
2018-07-09T08:44:14.462Z,1015.44
2018-07-09T08:45:14.457Z,1015.58
2018-07-09T08:46:14.449Z,1015.57
2018-07-09T08:47:14.450Z,1015.52
2018-07-09T08:48:14.443Z,1015.53
2018-07-09T08:49:14.439Z,1015.50
2018-07-09T08:50:14.435Z,1015.49
2018-07-09T08:51:14.430Z,1015.30
2018-07-09T08:52:14.426Z,1015.16
2018-07-09T08:53:14.473Z,1015.06
2018-07-09T08:54:14.417Z,1014.95
2018-07-09T08:55:14.440Z,1014.93
2018-07-09T08:56:14.412Z,1014.97
2018-07-09T08:57:14.409Z,1014.90
2018-07-09T08:58:14.401Z,1014.91
2018-07-09T08:59:14.397Z,1014.93
2018-07-09T09:00:14.393Z,1014.92
2018-07-09T09:01:14.389Z,1014.97
2018-07-09T09:02:14.385Z,1014.96
2018-07-09T09:03:14.381Z,1014.97
2018-07-09T09:04:14.376Z,1015.06
2018-07-09T09:05:14.374Z,1015.01
2018-07-09T09:06:14.369Z,1014.99
2018-07-09T09:07:14.365Z,1014.96
2018-07-09T09:08:14.362Z,1014.85
2018-07-09T09:09:14.359Z,1014.99
2018-07-09T09:10:14.354Z,1015.00
2018-07-09T09:11:14.347Z,1015.05
2018-07-09T09:12:14.343Z,1015.00
2018-07-09T09:13:14.343Z,1014.96
2018-07-09T09:14:14.340Z,1014.97
2018-07-09T09:15:14.338Z,1015.00
2018-07-09T09:16:14.325Z,1014.97
2018-07-09T09:17:14.325Z,1014.93
2018-07-09T09:18:14.320Z,1014.92
2018-07-09T09:19:14.316Z,1014.96
2018-07-09T09:20:14.311Z,1015.18
2018-07-09T09:21:14.303Z,1015.34
2018-07-09T09:22:14.299Z,1015.47
2018-07-09T09:23:14.294Z,1015.68
2018-07-09T09:24:14.294Z,1015.77
2018-07-09T09:25:14.287Z,1015.66
2018-07-09T09:26:14.284Z,1015.03
2018-07-09T09:27:14.278Z,1016.16
2018-07-09T09:28:14.275Z,1015.98
2018-07-09T09:29:14.269Z,1015.56
2018-07-09T09:30:14.263Z,1015.66
2018-07-09T09:31:14.276Z,1015.48
2018-07-09T09:32:14.260Z,1015.45
2018-07-09T09:33:14.252Z,1015.25
2018-07-09T09:34:14.253Z,1015.07
2018-07-09T09:35:14.242Z,1014.95
2018-07-09T09:36:14.237Z,1014.90
2018-07-09T09:37:14.243Z,1014.91
2018-07-09T09:38:14.230Z,1014.85
2018-07-09T09:39:14.225Z,1014.83
2018-07-09T09:40:14.230Z,1014.86
2018-07-09T09:41:14.220Z,1014.86
2018-07-09T09:42:14.212Z,1014.88
2018-07-09T09:43:14.245Z,1014.91
2018-07-09T09:44:14.205Z,1014.87
2018-07-09T09:45:14.205Z,1014.87
2018-07-09T09:46:14.195Z,1014.83
2018-07-09T09:47:14.193Z,1014.80
2018-07-09T09:48:14.189Z,1014.78
2018-07-09T09:49:14.185Z,1015.07
2018-07-09T09:50:14.180Z,1015.40
2018-07-09T09:51:14.190Z,1015.41
2018-07-09T09:52:14.173Z,1015.25
2018-07-09T09:53:14.170Z,1015.21
2018-07-09T09:54:14.167Z,1015.09
2018-07-09T09:55:14.162Z,1015.21
2018-07-09T09:56:14.161Z,1015.20
2018-07-09T09:57:14.159Z,1015.20
2018-07-09T09:58:14.152Z,1015.17
2018-07-09T09:59:14.150Z,1015.05
2018-07-09T10:00:14.152Z,1015.06
2018-07-09T10:01:14.144Z,1014.92
2018-07-09T10:02:14.144Z,1014.81
2018-07-09T10:03:14.138Z,1014.63
2018-07-09T10:04:14.135Z,1014.58
2018-07-09T10:05:14.137Z,1014.66
2018-07-09T10:06:14.160Z,1014.66
2018-07-09T10:07:14.127Z,1014.62
2018-07-09T10:08:14.124Z,1014.64
2018-07-09T10:09:14.122Z,1014.65
2018-07-09T10:10:14.119Z,1014.57
2018-07-09T10:11:14.114Z,1014.58
2018-07-09T10:12:14.114Z,1014.53
2018-07-09T10:13:14.113Z,1014.57
2018-07-09T10:14:14.107Z,1014.56
2018-07-09T10:15:14.109Z,1014.58
2018-07-09T10:16:14.104Z,1014.63
2018-07-09T10:17:14.100Z,1014.62
2018-07-09T10:18:14.095Z,1014.61
2018-07-09T10:19:14.094Z,1014.69
2018-07-09T10:20:14.097Z,1014.64
2018-07-09T10:21:14.087Z,1014.62
2018-07-09T10:22:14.083Z,1014.67
2018-07-09T10:23:14.171Z,1014.72
2018-07-09T10:24:14.076Z,1014.74
2018-07-09T10:25:14.075Z,1014.74
2018-07-09T10:26:14.074Z,1014.73
2018-07-09T10:27:14.066Z,1014.77
2018-07-09T10:28:14.063Z,1014.86
2018-07-09T10:29:14.063Z,1014.93
2018-07-09T10:30:14.059Z,1014.91
2018-07-09T10:31:14.054Z,1014.85
2018-07-09T10:32:14.059Z,1014.92
2018-07-09T10:33:14.050Z,1014.97
2018-07-09T10:34:14.044Z,1014.86
2018-07-09T10:35:14.042Z,1014.86
2018-07-09T10:36:14.040Z,1014.88
2018-07-09T10:37:14.038Z,1014.92
2018-07-09T10:38:14.035Z,1014.85
2018-07-09T10:39:14.032Z,1014.87
2018-07-09T10:40:14.032Z,1014.90
2018-07-09T10:41:14.032Z,1014.90
2018-07-09T10:42:14.025Z,1014.82
2018-07-09T10:43:14.022Z,1014.77
2018-07-09T10:44:14.022Z,1014.83
2018-07-09T10:45:14.023Z,1014.80
2018-07-09T10:46:14.019Z,1014.78
2018-07-09T10:47:14.060Z,1014.74
2018-07-09T10:48:14.016Z,1014.76
2018-07-09T10:49:14.013Z,1014.76
2018-07-09T10:50:14.011Z,1014.75
2018-07-09T10:51:14.014Z,1014.72
2018-07-09T10:52:14.009Z,1014.69
2018-07-09T10:53:14.010Z,1014.73
2018-07-09T10:54:14.009Z,1014.68
2018-07-09T10:55:14.045Z,1014.63
2018-07-09T10:56:14.004Z,1014.65
2018-07-09T10:57:14.004Z,1014.67
2018-07-09T10:58:14.006Z,1014.70
2018-07-09T10:59:14.004Z,1014.68
2018-07-09T11:00:14.000Z,1014.68
2018-07-09T11:01:14.001Z,1014.64
2018-07-09T11:02:14.000Z,1014.65
2018-07-09T11:03:14.000Z,1014.66
2018-07-09T11:04:13.996Z,1014.70
2018-07-09T11:05:13.997Z,1014.67
2018-07-09T11:06:13.997Z,1014.66
2018-07-09T11:07:13.993Z,1014.70
2018-07-09T11:08:13.994Z,1014.72
2018-07-09T11:09:13.994Z,1014.67
2018-07-09T11:10:13.995Z,1014.70
2018-07-09T11:11:13.992Z,1014.70
2018-07-09T11:12:13.994Z,1014.72
2018-07-09T11:13:13.991Z,1014.76
2018-07-09T11:14:13.991Z,1014.71
2018-07-09T11:15:13.991Z,1014.70
2018-07-09T11:16:14.025Z,1014.76
2018-07-09T11:17:14.007Z,1014.77
2018-07-09T11:18:13.986Z,1014.75
2018-07-09T11:19:13.988Z,1014.82
2018-07-09T11:20:13.984Z,1014.76
2018-07-09T11:21:13.988Z,1014.80
2018-07-09T11:22:13.985Z,1014.85
2018-07-09T11:23:13.984Z,1014.76
2018-07-09T11:24:13.981Z,1014.65
2018-07-09T11:25:13.985Z,1014.74
2018-07-09T11:26:13.992Z,1014.91
2018-07-09T11:27:13.978Z,1014.86
2018-07-09T11:28:13.980Z,1014.95
2018-07-09T11:29:13.981Z,1015.06
2018-07-09T11:30:13.978Z,1015.05
2018-07-09T11:31:13.978Z,1015.05
2018-07-09T11:32:13.978Z,1015.06
2018-07-09T11:33:13.977Z,1015.09
2018-07-09T11:34:13.972Z,1015.04
2018-07-09T11:35:13.972Z,1015.10
2018-07-09T11:36:13.973Z,1015.15
2018-07-09T11:37:13.971Z,1015.11
2018-07-09T11:38:13.972Z,1015.11
2018-07-09T11:39:13.972Z,1015.05
2018-07-09T11:40:13.976Z,1014.82
2018-07-09T11:41:13.972Z,1014.70
2018-07-09T11:42:14.030Z,1014.71
2018-07-09T11:43:14.012Z,1014.76
2018-07-09T11:44:13.972Z,1014.86
2018-07-09T11:45:13.979Z,1014.84
2018-07-09T11:46:13.966Z,1014.75
2018-07-09T11:47:13.970Z,1014.80
2018-07-09T11:48:13.966Z,1014.46
2018-07-09T11:49:13.970Z,1014.93
2018-07-09T11:50:13.968Z,1014.21
2018-07-09T11:51:13.967Z,1014.27
2018-07-09T11:52:14.033Z,1014.24
2018-07-09T11:53:13.967Z,1014.11
2018-07-09T11:54:13.966Z,1014.14
2018-07-09T11:55:13.969Z,1014.95
2018-07-09T11:56:13.977Z,1014.13
2018-07-09T11:57:13.967Z,1014.11
2018-07-09T11:58:13.964Z,1014.14
2018-07-09T11:59:13.963Z,1014.17
2018-07-09T12:00:13.964Z,1014.16
2018-07-09T12:01:13.971Z,1014.12
2018-07-09T12:02:13.960Z,1014.08
2018-07-09T12:03:13.962Z,1014.06
2018-07-09T12:04:13.966Z,1014.09
2018-07-09T12:05:13.967Z,1014.07
2018-07-09T12:06:13.967Z,1013.98
2018-07-09T12:07:13.954Z,1013.97
2018-07-09T12:08:14.000Z,1014.00
2018-07-09T12:09:13.956Z,1014.02
2018-07-09T12:10:13.951Z,1013.96